sensor_id;sensor_type;location;lat;lon;timestamp;pressure;altitude;pressure_sealevel;temperature;humidity
21879;BME280;27908;42.708;23.278;2023-05-03T00:00:54;64028.44;;;13.50;50.31
21879;BME280;27908;42.708;23.278;2023-05-03T00:03:20;64002.31;;;13.47;51.09
21879;BME280;27908;42.708;23.278;2023-05-03T00:05:49;64021.22;;;13.43;50.81
21879;BME280;27908;42.708;23.278;2023-05-03T00:08:15;63979.06;;;13.25;50.13
21879;BME280;27908;42.708;23.278;2023-05-03T00:10:40;63991.91;;;13.30;50.36
21879;BME280;27908;42.708;23.278;2023-05-03T00:13:06;63991.28;;;13.19;50.56
21879;BME280;27908;42.708;23.278;2023-05-03T00:15:32;64008.72;;;13.21;50.22
21879;BME280;27908;42.708;23.278;2023-05-03T00:17:57;63946.75;;;13.16;50.66
21879;BME280;27908;42.708;23.278;2023-05-03T00:20:22;63995.88;;;13.16;50.56
21879;BME280;27908;42.708;23.278;2023-05-03T00:22:49;64054.78;;;13.21;51.28
21879;BME280;27908;42.708;23.278;2023-05-03T00:25:15;63986.56;;;13.08;51.60
21879;BME280;27908;42.708;23.278;2023-05-03T00:27:41;63941.59;;;13.14;52.24
21879;BME280;27908;42.708;23.278;2023-05-03T00:30:07;63948.25;;;13.13;52.29
21879;BME280;27908;42.708;23.278;2023-05-03T00:32:32;63967.56;;;13.02;52.45
21879;BME280;27908;42.708;23.278;2023-05-03T00:34:57;63975.25;;;13.02;52.61
21879;BME280;27908;42.708;23.278;2023-05-03T00:37:23;63953.75;;;12.98;53.37
21879;BME280;27908;42.708;23.278;2023-05-03T00:39:49;63901.00;;;12.92;52.59
21879;BME280;27908;42.708;23.278;2023-05-03T00:42:15;63956.72;;;12.89;53.41
21879;BME280;27908;42.708;23.278;2023-05-03T00:44:40;63929.09;;;12.89;52.85
21879;BME280;27908;42.708;23.278;2023-05-03T00:47:06;63930.50;;;12.76;53.14
21879;BME280;27908;42.708;23.278;2023-05-03T00:49:32;63933.13;;;12.81;53.69
21879;BME280;27908;42.708;23.278;2023-05-03T00:51:57;63905.53;;;12.86;53.97
21879;BME280;27908;42.708;23.278;2023-05-03T00:54:26;63894.22;;;12.78;54.08
21879;BME280;27908;42.708;23.278;2023-05-03T00:56:52;63931.53;;;12.77;53.45
21879;BME280;27908;42.708;23.278;2023-05-03T00:59:18;63943.22;;;12.69;53.85
21879;BME280;27908;42.708;23.278;2023-05-03T01:01:47;63882.34;;;12.67;53.42
21879;BME280;27908;42.708;23.278;2023-05-03T01:04:13;63883.34;;;12.65;53.74
21879;BME280;27908;42.708;23.278;2023-05-03T01:12:43;63877.13;;;12.54;53.59
21879;BME280;27908;42.708;23.278;2023-05-03T01:15:18;63906.28;;;12.55;53.46
21879;BME280;27908;42.708;23.278;2023-05-03T01:17:58;63866.31;;;12.46;53.53
21879;BME280;27908;42.708;23.278;2023-05-03T01:20:27;63887.72;;;12.40;54.00
21879;BME280;27908;42.708;23.278;2023-05-03T01:25:24;63884.09;;;12.37;53.71
21879;BME280;27908;42.708;23.278;2023-05-03T01:27:51;63809.88;;;12.22;54.01
21879;BME280;27908;42.708;23.278;2023-05-03T01:30:17;63831.91;;;12.28;53.82
21879;BME280;27908;42.708;23.278;2023-05-03T01:33:20;63830.31;;;12.22;54.65
21879;BME280;27908;42.708;23.278;2023-05-03T01:36:14;63863.44;;;12.14;54.67
21879;BME280;27908;42.708;23.278;2023-05-03T01:38:41;63824.09;;;12.11;54.01
21879;BME280;27908;42.708;23.278;2023-05-03T01:41:11;63809.19;;;12.04;54.39
21879;BME280;27908;42.708;23.278;2023-05-03T01:43:39;63866.94;;;12.06;54.45
21879;BME280;27908;42.708;23.278;2023-05-03T01:46:05;63796.41;;;12.04;54.85
21879;BME280;27908;42.708;23.278;2023-05-03T01:48:30;63798.44;;;12.01;54.56
21879;BME280;27908;42.708;23.278;2023-05-03T01:50:56;63799.91;;;11.93;54.96
21879;BME280;27908;42.708;23.278;2023-05-03T01:53:21;63824.41;;;11.94;55.52
21879;BME280;27908;42.708;23.278;2023-05-03T01:55:46;63783.06;;;11.94;54.62
21879;BME280;27908;42.708;23.278;2023-05-03T01:58:12;63794.16;;;11.80;55.22
21879;BME280;27908;42.708;23.278;2023-05-03T02:00:37;63805.00;;;11.93;54.35
21879;BME280;27908;42.708;23.278;2023-05-03T02:03:03;63757.91;;;11.82;54.35
21879;BME280;27908;42.708;23.278;2023-05-03T02:05:28;63816.31;;;11.99;55.13
21879;BME280;27908;42.708;23.278;2023-05-03T02:07:54;63791.66;;;11.85;55.46
21879;BME280;27908;42.708;23.278;2023-05-03T02:10:19;63811.16;;;11.94;55.03
21879;BME280;27908;42.708;23.278;2023-05-03T02:12:45;63801.41;;;11.92;55.03
21879;BME280;27908;42.708;23.278;2023-05-03T02:15:11;63752.91;;;11.92;56.03
21879;BME280;27908;42.708;23.278;2023-05-03T02:17:37;63760.94;;;11.75;55.58
21879;BME280;27908;42.708;23.278;2023-05-03T02:20:03;63710.78;;;11.64;55.85
21879;BME280;27908;42.708;23.278;2023-05-03T02:22:35;63752.69;;;11.70;55.93
21879;BME280;27908;42.708;23.278;2023-05-03T02:25:00;63761.41;;;11.71;56.52
21879;BME280;27908;42.708;23.278;2023-05-03T02:27:26;63764.44;;;11.69;56.29
21879;BME280;27908;42.708;23.278;2023-05-03T02:29:51;63735.31;;;11.65;56.63
21879;BME280;27908;42.708;23.278;2023-05-03T02:32:17;63746.38;;;11.49;56.96
21879;BME280;27908;42.708;23.278;2023-05-03T02:34:45;63718.44;;;11.61;57.46
21879;BME280;27908;42.708;23.278;2023-05-03T02:37:11;63752.66;;;11.62;57.31
21879;BME280;27908;42.708;23.278;2023-05-03T02:39:36;63762.31;;;11.62;57.73
21879;BME280;27908;42.708;23.278;2023-05-03T02:42:02;63689.19;;;11.45;56.95
21879;BME280;27908;42.708;23.278;2023-05-03T02:44:27;63727.56;;;11.58;58.26
21879;BME280;27908;42.708;23.278;2023-05-03T02:46:53;63777.09;;;11.56;57.09
21879;BME280;27908;42.708;23.278;2023-05-03T02:49:19;63741.41;;;11.61;57.08
21879;BME280;27908;42.708;23.278;2023-05-03T02:51:44;63731.66;;;11.54;57.33
21879;BME280;27908;42.708;23.278;2023-05-03T02:54:10;63726.97;;;11.47;57.34
21879;BME280;27908;42.708;23.278;2023-05-03T02:56:36;63761.25;;;11.56;56.68
21879;BME280;27908;42.708;23.278;2023-05-03T02:59:02;63733.69;;;11.54;56.79
21879;BME280;27908;42.708;23.278;2023-05-03T03:01:27;63763.81;;;11.56;58.01
21879;BME280;27908;42.708;23.278;2023-05-03T03:03:54;63719.91;;;11.55;57.35
21879;BME280;27908;42.708;23.278;2023-05-03T03:06:19;63717.34;;;11.55;56.98
21879;BME280;27908;42.708;23.278;2023-05-03T03:08:45;63739.31;;;11.54;57.81
21879;BME280;27908;42.708;23.278;2023-05-03T03:11:10;63727.03;;;11.52;56.70
21879;BME280;27908;42.708;23.278;2023-05-03T03:13:36;63743.38;;;11.56;57.64
21879;BME280;27908;42.708;23.278;2023-05-03T03:16:05;63748.47;;;11.53;57.61
21879;BME280;27908;42.708;23.278;2023-05-03T03:18:31;63708.69;;;11.54;57.93
21879;BME280;27908;42.708;23.278;2023-05-03T03:20:56;63747.97;;;11.53;57.50
21879;BME280;27908;42.708;23.278;2023-05-03T03:23:22;63694.38;;;11.53;58.01
21879;BME280;27908;42.708;23.278;2023-05-03T03:25:47;63698.41;;;11.49;58.09
21879;BME280;27908;42.708;23.278;2023-05-03T03:28:12;63735.19;;;11.53;57.76
21879;BME280;27908;42.708;23.278;2023-05-03T03:30:38;63678.72;;;11.18;58.44
21879;BME280;27908;42.708;23.278;2023-05-03T03:33:03;63707.09;;;11.50;59.20
21879;BME280;27908;42.708;23.278;2023-05-03T03:35:30;63726.00;;;11.51;58.84
21879;BME280;27908;42.708;23.278;2023-05-03T03:37:56;63778.59;;;11.55;59.37
21879;BME280;27908;42.708;23.278;2023-05-03T03:40:21;63691.31;;;11.52;59.51
21879;BME280;27908;42.708;23.278;2023-05-03T03:42:46;63665.97;;;11.16;59.65
21879;BME280;27908;42.708;23.278;2023-05-03T03:45:12;63694.88;;;11.56;59.14
21879;BME280;27908;42.708;23.278;2023-05-03T03:47:37;63746.44;;;11.54;59.02
21879;BME280;27908;42.708;23.278;2023-05-03T03:50:03;63747.44;;;11.50;58.84
21879;BME280;27908;42.708;23.278;2023-05-03T03:52:28;63702.53;;;11.53;58.72
21879;BME280;27908;42.708;23.278;2023-05-03T03:54:54;63744.91;;;11.52;59.21
21879;BME280;27908;42.708;23.278;2023-05-03T03:57:19;63704.44;;;11.40;59.22
21879;BME280;27908;42.708;23.278;2023-05-03T03:59:45;63726.53;;;11.52;59.02
21879;BME280;27908;42.708;23.278;2023-05-03T04:02:10;63711.06;;;11.39;58.66
21879;BME280;27908;42.708;23.278;2023-05-03T04:04:36;63746.91;;;11.49;59.68
21879;BME280;27908;42.708;23.278;2023-05-03T04:07:01;63732.13;;;11.50;58.70
21879;BME280;27908;42.708;23.278;2023-05-03T04:09:27;63708.50;;;11.39;58.64
21879;BME280;27908;42.708;23.278;2023-05-03T04:11:53;63713.28;;;11.54;59.16
21879;BME280;27908;42.708;23.278;2023-05-03T04:14:25;63723.50;;;11.59;59.55
21879;BME280;27908;42.708;23.278;2023-05-03T04:16:50;63772.53;;;11.59;58.93
21879;BME280;27908;42.708;23.278;2023-05-03T04:19:15;63734.09;;;11.44;59.06
21879;BME280;27908;42.708;23.278;2023-05-03T04:21:42;63711.19;;;11.49;58.68
21879;BME280;27908;42.708;23.278;2023-05-03T04:24:08;63707.63;;;11.51;58.94
21879;BME280;27908;42.708;23.278;2023-05-03T04:26:34;63751.56;;;11.54;58.88
21879;BME280;27908;42.708;23.278;2023-05-03T04:28:59;63734.50;;;11.37;59.12
21879;BME280;27908;42.708;23.278;2023-05-03T04:31:24;63823.06;;;11.59;59.32
21879;BME280;27908;42.708;23.278;2023-05-03T04:33:51;63719.47;;;11.65;59.51
21879;BME280;27908;42.708;23.278;2023-05-03T04:36:16;63774.63;;;11.66;59.32
21879;BME280;27908;42.708;23.278;2023-05-03T04:38:43;63734.19;;;11.52;60.39
21879;BME280;27908;42.708;23.278;2023-05-03T04:41:08;63756.78;;;11.69;61.01
21879;BME280;27908;42.708;23.278;2023-05-03T04:43:34;63724.09;;;11.67;60.97
21879;BME280;27908;42.708;23.278;2023-05-03T04:46:00;63775.63;;;11.65;60.88
21879;BME280;27908;42.708;23.278;2023-05-03T04:48:27;63705.09;;;11.53;60.01
21879;BME280;27908;42.708;23.278;2023-05-03T04:50:53;63778.19;;;11.65;60.66
21879;BME280;27908;42.708;23.278;2023-05-03T04:53:18;63731.78;;;11.72;60.90
21879;BME280;27908;42.708;23.278;2023-05-03T04:55:43;63756.28;;;11.71;61.17
21879;BME280;27908;42.708;23.278;2023-05-03T04:58:09;63729.63;;;11.57;61.05
21879;BME280;27908;42.708;23.278;2023-05-03T05:00:34;63708.13;;;11.51;61.06
21879;BME280;27908;42.708;23.278;2023-05-03T05:03:00;63707.22;;;11.65;61.33
21879;BME280;27908;42.708;23.278;2023-05-03T05:05:25;63736.28;;;11.59;61.29
21879;BME280;27908;42.708;23.278;2023-05-03T05:07:51;63680.97;;;11.40;62.16
21879;BME280;27908;42.708;23.278;2023-05-03T05:10:16;63702.97;;;11.44;61.48
21879;BME280;27908;42.708;23.278;2023-05-03T05:12:42;63728.88;;;11.35;61.94
21879;BME280;27908;42.708;23.278;2023-05-03T05:15:08;63698.97;;;11.52;63.74
21879;BME280;27908;42.708;23.278;2023-05-03T05:17:33;63737.78;;;11.58;66.09
21879;BME280;27908;42.708;23.278;2023-05-03T05:19:59;63692.31;;;11.51;67.62
21879;BME280;27908;42.708;23.278;2023-05-03T05:22:24;63715.66;;;11.41;68.92
21879;BME280;27908;42.708;23.278;2023-05-03T05:24:50;63675.88;;;11.40;70.62
21879;BME280;27908;42.708;23.278;2023-05-03T05:27:15;63759.63;;;11.44;72.30
21879;BME280;27908;42.708;23.278;2023-05-03T05:29:41;63723.97;;;11.52;73.68
21879;BME280;27908;42.708;23.278;2023-05-03T05:32:06;63688.75;;;11.50;73.23
21879;BME280;27908;42.708;23.278;2023-05-03T05:34:32;63713.13;;;11.41;71.85
21879;BME280;27908;42.708;23.278;2023-05-03T05:36:57;63691.22;;;11.45;70.92
21879;BME280;27908;42.708;23.278;2023-05-03T05:39:24;63722.03;;;11.62;71.01
21879;BME280;27908;42.708;23.278;2023-05-03T05:41:50;63846.00;;;11.56;70.05
21879;BME280;27908;42.708;23.278;2023-05-03T05:44:15;63759.88;;;11.72;70.15
21879;BME280;27908;42.708;23.278;2023-05-03T05:46:40;63788.06;;;11.84;69.07
21879;BME280;27908;42.708;23.278;2023-05-03T05:49:06;63791.59;;;11.77;67.16
21879;BME280;27908;42.708;23.278;2023-05-03T05:51:31;63785.13;;;11.96;67.71
21879;BME280;27908;42.708;23.278;2023-05-03T05:53:57;63792.28;;;11.98;66.98
21879;BME280;27908;42.708;23.278;2023-05-03T05:56:22;63817.38;;;12.05;68.02
21879;BME280;27908;42.708;23.278;2023-05-03T05:58:48;63780.63;;;12.08;66.04
21879;BME280;27908;42.708;23.278;2023-05-03T06:01:14;63963.53;;;12.07;66.96
21879;BME280;27908;42.708;23.278;2023-05-03T06:03:39;63821.53;;;12.11;68.05
21879;BME280;27908;42.708;23.278;2023-05-03T06:06:05;63822.63;;;12.22;68.63
21879;BME280;27908;42.708;23.278;2023-05-03T06:08:30;63844.44;;;12.04;67.09
21879;BME280;27908;42.708;23.278;2023-05-03T06:10:56;63845.06;;;12.14;68.49
21879;BME280;27908;42.708;23.278;2023-05-03T06:13:21;63811.91;;;12.19;70.71
21879;BME280;27908;42.708;23.278;2023-05-03T06:15:47;63815.84;;;12.06;68.18
21879;BME280;27908;42.708;23.278;2023-05-03T06:18:12;63805.59;;;12.01;69.55
21879;BME280;27908;42.708;23.278;2023-05-03T06:20:38;63743.63;;;11.80;71.71
21879;BME280;27908;42.708;23.278;2023-05-03T06:23:03;63813.78;;;12.01;73.40
21879;BME280;27908;42.708;23.278;2023-05-03T06:25:29;63790.19;;;11.93;72.94
21879;BME280;27908;42.708;23.278;2023-05-03T06:27:54;63831.25;;;12.13;73.74
21879;BME280;27908;42.708;23.278;2023-05-03T06:30:19;63820.94;;;12.03;73.50
21879;BME280;27908;42.708;23.278;2023-05-03T06:32:46;63847.66;;;12.19;70.09
21879;BME280;27908;42.708;23.278;2023-05-03T06:35:12;63812.91;;;12.20;70.23
21879;BME280;27908;42.708;23.278;2023-05-03T06:37:38;63901.19;;;12.07;72.18
21879;BME280;27908;42.708;23.278;2023-05-03T06:40:03;63890.72;;;12.33;69.65
21879;BME280;27908;42.708;23.278;2023-05-03T06:42:30;63862.22;;;12.47;72.25
21879;BME280;27908;42.708;23.278;2023-05-03T06:44:56;63930.41;;;12.66;70.74
21879;BME280;27908;42.708;23.278;2023-05-03T06:47:22;63897.13;;;12.61;68.97
21879;BME280;27908;42.708;23.278;2023-05-03T06:49:47;63838.81;;;12.59;67.18
21879;BME280;27908;42.708;23.278;2023-05-03T06:52:13;63911.59;;;12.78;67.83
21879;BME280;27908;42.708;23.278;2023-05-03T06:54:39;63935.16;;;12.78;70.41
21879;BME280;27908;42.708;23.278;2023-05-03T06:57:04;63917.69;;;12.74;67.64
21879;BME280;27908;42.708;23.278;2023-05-03T06:59:30;63951.59;;;12.86;67.72
21879;BME280;27908;42.708;23.278;2023-05-03T07:01:55;63913.16;;;12.79;67.57
21879;BME280;27908;42.708;23.278;2023-05-03T07:04:21;63904.38;;;12.73;68.06
21879;BME280;27908;42.708;23.278;2023-05-03T07:06:46;63961.41;;;12.96;66.84
21879;BME280;27908;42.708;23.278;2023-05-03T07:09:11;63963.44;;;12.95;65.21
21879;BME280;27908;42.708;23.278;2023-05-03T07:11:38;63923.47;;;12.91;65.62
21879;BME280;27908;42.708;23.278;2023-05-03T07:14:08;63975.81;;;13.07;64.12
21879;BME280;27908;42.708;23.278;2023-05-03T07:16:34;63982.53;;;13.14;64.86
21879;BME280;27908;42.708;23.278;2023-05-03T07:18:59;63914.47;;;13.15;66.24
21879;BME280;27908;42.708;23.278;2023-05-03T07:21:25;63955.50;;;13.24;63.87
21879;BME280;27908;42.708;23.278;2023-05-03T07:23:51;63991.78;;;13.17;63.28
21879;BME280;27908;42.708;23.278;2023-05-03T07:26:16;63964.59;;;13.09;64.27
21879;BME280;27908;42.708;23.278;2023-05-03T07:28:41;63962.59;;;13.14;64.45
21879;BME280;27908;42.708;23.278;2023-05-03T07:31:07;63965.69;;;13.19;63.65
21879;BME280;27908;42.708;23.278;2023-05-03T07:33:33;63980.63;;;13.26;65.81
21879;BME280;27908;42.708;23.278;2023-05-03T07:35:59;63977.69;;;13.43;66.39
21879;BME280;27908;42.708;23.278;2023-05-03T07:38:25;64031.09;;;13.60;64.46
21879;BME280;27908;42.708;23.278;2023-05-03T07:40:50;64043.00;;;13.74;64.03
21879;BME280;27908;42.708;23.278;2023-05-03T07:43:15;64110.25;;;13.89;64.01
21879;BME280;27908;42.708;23.278;2023-05-03T07:45:42;64114.50;;;14.03;63.73
21879;BME280;27908;42.708;23.278;2023-05-03T07:48:08;64079.56;;;13.94;62.13
21879;BME280;27908;42.708;23.278;2023-05-03T07:50:33;64065.16;;;13.87;64.83
21879;BME280;27908;42.708;23.278;2023-05-03T07:52:59;64130.31;;;13.98;65.07
21879;BME280;27908;42.708;23.278;2023-05-03T07:55:24;64147.44;;;14.17;64.27
21879;BME280;27908;42.708;23.278;2023-05-03T07:57:49;64121.69;;;14.02;64.87
21879;BME280;27908;42.708;23.278;2023-05-03T08:00:16;64117.66;;;14.11;65.27
21879;BME280;27908;42.708;23.278;2023-05-03T08:02:42;64136.19;;;14.21;63.52
21879;BME280;27908;42.708;23.278;2023-05-03T08:05:09;64110.94;;;14.07;63.85
21879;BME280;27908;42.708;23.278;2023-05-03T08:07:35;64137.22;;;14.20;63.21
21879;BME280;27908;42.708;23.278;2023-05-03T08:10:01;64179.66;;;14.09;63.01
21879;BME280;27908;42.708;23.278;2023-05-03T08:12:27;64080.56;;;13.95;65.04
21879;BME280;27908;42.708;23.278;2023-05-03T08:14:53;64121.09;;;13.97;65.67
21879;BME280;27908;42.708;23.278;2023-05-03T08:17:19;64095.63;;;14.12;65.45
21879;BME280;27908;42.708;23.278;2023-05-03T08:19:45;64137.22;;;14.20;66.41
21879;BME280;27908;42.708;23.278;2023-05-03T08:22:11;64216.88;;;14.39;65.36
21879;BME280;27908;42.708;23.278;2023-05-03T08:24:37;64178.53;;;14.52;65.35
21879;BME280;27908;42.708;23.278;2023-05-03T08:27:03;64220.75;;;14.70;63.59
21879;BME280;27908;42.708;23.278;2023-05-03T08:29:30;64239.91;;;14.86;63.98
21879;BME280;27908;42.708;23.278;2023-05-03T08:31:56;64264.50;;;14.82;62.78
21879;BME280;27908;42.708;23.278;2023-05-03T08:34:22;64305.88;;;15.12;62.91
21879;BME280;27908;42.708;23.278;2023-05-03T08:36:48;64308.16;;;15.33;64.17
21879;BME280;27908;42.708;23.278;2023-05-03T08:39:13;64365.53;;;15.73;62.75
21879;BME280;27908;42.708;23.278;2023-05-03T08:41:40;64428.44;;;15.92;61.70
21879;BME280;27908;42.708;23.278;2023-05-03T08:44:07;64373.34;;;15.81;60.76
21879;BME280;27908;42.708;23.278;2023-05-03T08:46:34;64440.34;;;15.98;61.09
21879;BME280;27908;42.708;23.278;2023-05-03T08:49:03;64424.84;;;15.93;60.97
21879;BME280;27908;42.708;23.278;2023-05-03T08:51:32;64455.97;;;16.18;63.62
21879;BME280;27908;42.708;23.278;2023-05-03T08:53:58;64555.16;;;16.56;62.82
21879;BME280;27908;42.708;23.278;2023-05-03T08:56:38;64565.75;;;16.85;60.85
21879;BME280;27908;42.708;23.278;2023-05-03T08:59:04;64571.44;;;16.88;59.90
21879;BME280;27908;42.708;23.278;2023-05-03T09:01:40;64590.00;;;16.91;60.42
21879;BME280;27908;42.708;23.278;2023-05-03T09:04:07;64647.84;;;17.07;59.81
21879;BME280;27908;42.708;23.278;2023-05-03T09:06:33;64565.78;;;16.90;58.76
21879;BME280;27908;42.708;23.278;2023-05-03T09:09:00;64619.00;;;17.07;60.41
21879;BME280;27908;42.708;23.278;2023-05-03T09:11:30;64524.81;;;16.59;58.53
21879;BME280;27908;42.708;23.278;2023-05-03T09:14:16;64556.84;;;16.70;58.82
21879;BME280;27908;42.708;23.278;2023-05-03T09:16:44;64556.06;;;16.98;58.46
21879;BME280;27908;42.708;23.278;2023-05-03T09:19:11;64560.38;;;17.17;59.69
21879;BME280;27908;42.708;23.278;2023-05-03T09:21:38;64697.75;;;17.45;58.31
21879;BME280;27908;42.708;23.278;2023-05-03T09:24:18;64724.78;;;17.65;56.57
21879;BME280;27908;42.708;23.278;2023-05-03T09:26:44;64669.41;;;17.45;55.90
21879;BME280;27908;42.708;23.278;2023-05-03T09:29:26;64700.94;;;17.55;56.28
21879;BME280;27908;42.708;23.278;2023-05-03T09:32:01;64707.56;;;17.46;56.19
21879;BME280;27908;42.708;23.278;2023-05-03T09:34:27;64750.59;;;17.70;56.28
21879;BME280;27908;42.708;23.278;2023-05-03T09:36:53;64712.38;;;17.66;55.90
21879;BME280;27908;42.708;23.278;2023-05-03T09:39:19;64748.75;;;17.90;55.06
21879;BME280;27908;42.708;23.278;2023-05-03T09:41:45;64751.88;;;17.93;54.44
21879;BME280;27908;42.708;23.278;2023-05-03T09:44:10;64878.31;;;18.37;55.41
21879;BME280;27908;42.708;23.278;2023-05-03T09:46:36;64939.72;;;18.83;55.49
21879;BME280;27908;42.708;23.278;2023-05-03T09:49:02;64956.47;;;18.99;54.51
21879;BME280;27908;42.708;23.278;2023-05-03T09:51:30;65001.28;;;18.88;54.34
21879;BME280;27908;42.708;23.278;2023-05-03T09:53:58;64989.63;;;19.06;54.08
21879;BME280;27908;42.708;23.278;2023-05-03T09:56:24;64964.31;;;19.06;52.80
21879;BME280;27908;42.708;23.278;2023-05-03T09:58:53;65042.09;;;19.28;55.27
21879;BME280;27908;42.708;23.278;2023-05-03T10:01:19;64994.38;;;19.15;54.76
21879;BME280;27908;42.708;23.278;2023-05-03T10:03:48;65022.56;;;19.39;54.72
21879;BME280;27908;42.708;23.278;2023-05-03T10:06:48;65093.75;;;19.67;53.07
21879;BME280;27908;42.708;23.278;2023-05-03T10:11:51;65068.09;;;19.41;50.88
21879;BME280;27908;42.708;23.278;2023-05-03T10:14:17;65007.94;;;19.28;53.10
21879;BME280;27908;42.708;23.278;2023-05-03T10:17:01;65012.69;;;19.35;52.66
21879;BME280;27908;42.708;23.278;2023-05-03T10:25:31;65158.84;;;19.99;50.99
21879;BME280;27908;42.708;23.278;2023-05-03T10:28:04;65268.91;;;20.25;51.72
21879;BME280;27908;42.708;23.278;2023-05-03T10:30:32;65137.84;;;19.77;50.34
21879;BME280;27908;42.708;23.278;2023-05-03T10:35:51;65140.38;;;19.75;50.81
21879;BME280;27908;42.708;23.278;2023-05-03T10:38:23;65187.22;;;19.92;51.74
21879;BME280;27908;42.708;23.278;2023-05-03T10:40:49;65155.13;;;19.94;51.14
21879;BME280;27908;42.708;23.278;2023-05-03T10:45:56;65169.13;;;19.97;50.80
21879;BME280;27908;42.708;23.278;2023-05-03T10:48:22;65152.56;;;19.96;51.05
21879;BME280;27908;42.708;23.278;2023-05-03T10:50:48;65120.69;;;19.71;53.11
21879;BME280;27908;42.708;23.278;2023-05-03T10:53:33;65165.41;;;19.86;53.53
21879;BME280;27908;42.708;23.278;2023-05-03T10:56:06;65130.94;;;20.07;51.17
21879;BME280;27908;42.708;23.278;2023-05-03T10:58:43;65220.16;;;20.21;52.10
21879;BME280;27908;42.708;23.278;2023-05-03T11:01:11;65212.22;;;20.06;53.13
21879;BME280;27908;42.708;23.278;2023-05-03T11:06:56;65124.88;;;19.75;52.63
21879;BME280;27908;42.708;23.278;2023-05-03T11:09:29;65067.66;;;19.50;53.12
21879;BME280;27908;42.708;23.278;2023-05-03T11:11:55;65046.09;;;19.18;53.16
21879;BME280;27908;42.708;23.278;2023-05-03T11:14:21;64984.41;;;19.03;52.97
21879;BME280;27908;42.708;23.278;2023-05-03T11:16:47;64983.78;;;18.93;54.32
21879;BME280;27908;42.708;23.278;2023-05-03T11:19:14;64977.22;;;19.06;54.14
21879;BME280;27908;42.708;23.278;2023-05-03T11:21:41;64979.72;;;18.99;54.15
21879;BME280;27908;42.708;23.278;2023-05-03T11:24:07;65055.47;;;19.24;54.13
21879;BME280;27908;42.708;23.278;2023-05-03T11:26:38;65076.41;;;19.46;53.24
21879;BME280;27908;42.708;23.278;2023-05-03T11:29:04;65107.78;;;19.73;54.33
21879;BME280;27908;42.708;23.278;2023-05-03T11:31:30;65108.19;;;19.64;53.25
21879;BME280;27908;42.708;23.278;2023-05-03T11:33:56;65080.66;;;19.55;53.77
21879;BME280;27908;42.708;23.278;2023-05-03T11:36:21;65045.38;;;19.46;54.56
21879;BME280;27908;42.708;23.278;2023-05-03T11:38:47;65032.59;;;19.12;55.03
21879;BME280;27908;42.708;23.278;2023-05-03T11:41:14;64932.50;;;18.84;55.83
21879;BME280;27908;42.708;23.278;2023-05-03T11:43:44;65008.97;;;18.83;56.26
21879;BME280;27908;42.708;23.278;2023-05-03T11:46:12;65007.91;;;19.23;56.73
21879;BME280;27908;42.708;23.278;2023-05-03T11:48:38;65138.41;;;19.80;56.51
21879;BME280;27908;42.708;23.278;2023-05-03T11:51:08;65271.38;;;20.57;53.33
21879;BME280;27908;42.708;23.278;2023-05-03T11:53:37;65416.66;;;21.05;53.75
21879;BME280;27908;42.708;23.278;2023-05-03T11:56:10;65489.25;;;21.42;53.00
21879;BME280;27908;42.708;23.278;2023-05-03T11:58:51;65438.66;;;21.24;51.54
21879;BME280;27908;42.708;23.278;2023-05-03T12:01:20;65509.09;;;21.51;50.39
21879;BME280;27908;42.708;23.278;2023-05-03T12:03:46;65449.16;;;21.34;49.87
21879;BME280;27908;42.708;23.278;2023-05-03T12:06:14;65411.50;;;21.10;50.59
21879;BME280;27908;42.708;23.278;2023-05-03T12:08:41;65431.38;;;21.22;50.48
21879;BME280;27908;42.708;23.278;2023-05-03T12:11:06;65449.25;;;21.39;50.06
21879;BME280;27908;42.708;23.278;2023-05-03T12:13:34;65393.59;;;21.30;49.83
21879;BME280;27908;42.708;23.278;2023-05-03T12:16:01;65442.84;;;21.25;52.65
21879;BME280;27908;42.708;23.278;2023-05-03T12:21:20;65241.00;;;20.31;51.69
21879;BME280;27908;42.708;23.278;2023-05-03T12:23:46;65215.38;;;20.11;52.06
21879;BME280;27908;42.708;23.278;2023-05-03T12:26:15;65149.75;;;19.79;52.30
21879;BME280;27908;42.708;23.278;2023-05-03T12:28:41;65010.81;;;19.06;52.66
21879;BME280;27908;42.708;23.278;2023-05-03T12:31:06;65048.34;;;19.34;53.76
21879;BME280;27908;42.708;23.278;2023-05-03T12:33:31;64962.03;;;18.89;54.30
21879;BME280;27908;42.708;23.278;2023-05-03T12:35:58;64925.44;;;18.50;55.05
21879;BME280;27908;42.708;23.278;2023-05-03T12:38:23;64800.81;;;17.88;57.22
21879;BME280;27908;42.708;23.278;2023-05-03T12:40:49;64714.97;;;17.66;58.74
21879;BME280;27908;42.708;23.278;2023-05-03T12:43:14;64716.31;;;17.47;59.96
21879;BME280;27908;42.708;23.278;2023-05-03T12:45:40;64647.97;;;17.17;61.05
21879;BME280;27908;42.708;23.278;2023-05-03T12:48:06;64588.00;;;16.97;62.54
21879;BME280;27908;42.708;23.278;2023-05-03T12:50:32;64578.13;;;16.87;64.70
21879;BME280;27908;42.708;23.278;2023-05-03T12:52:57;64585.50;;;17.04;64.28
21879;BME280;27908;42.708;23.278;2023-05-03T12:55:23;64610.81;;;17.11;64.20
21879;BME280;27908;42.708;23.278;2023-05-03T12:57:48;64595.72;;;16.97;64.77
21879;BME280;27908;42.708;23.278;2023-05-03T13:00:14;64604.34;;;16.83;64.94
21879;BME280;27908;42.708;23.278;2023-05-03T13:02:41;64553.22;;;16.69;64.75
21879;BME280;27908;42.708;23.278;2023-05-03T13:05:07;64500.41;;;16.38;66.31
21879;BME280;27908;42.708;23.278;2023-05-03T13:07:33;64444.31;;;16.36;68.14
21879;BME280;27908;42.708;23.278;2023-05-03T13:09:59;64504.44;;;16.27;71.14
21879;BME280;27908;42.708;23.278;2023-05-03T13:12:24;64443.50;;;16.06;72.90
21879;BME280;27908;42.708;23.278;2023-05-03T13:14:51;64420.91;;;16.11;74.55
21879;BME280;27908;42.708;23.278;2023-05-03T13:17:18;64499.16;;;16.15;78.01